sensor_id;sensor_type;location;lat;lon;timestamp;pressure;altitude;pressure_sealevel;temperature;humidity
86089;BME280;76699;52.232;5.176;2024-02-21T00:01:16;102037.78;;;23.43;41.16
86089;BME280;76699;52.232;5.176;2024-02-21T00:03:42;102043.44;;;23.41;40.98
86089;BME280;76699;52.232;5.176;2024-02-21T00:06:07;102040.94;;;23.40;41.04
86089;BME280;76699;52.232;5.176;2024-02-21T00:08:32;102037.59;;;23.38;40.70
86089;BME280;76699;52.232;5.176;2024-02-21T00:10:58;102024.59;;;23.33;40.77
86089;BME280;76699;52.232;5.176;2024-02-21T00:13:23;102029.44;;;23.31;40.76
86089;BME280;76699;52.232;5.176;2024-02-21T00:15:49;102026.91;;;23.30;41.08
86089;BME280;76699;52.232;5.176;2024-02-21T00:18:15;102024.00;;;23.25;40.94
86089;BME280;76699;52.232;5.176;2024-02-21T00:20:40;102014.38;;;23.22;41.14
86089;BME280;76699;52.232;5.176;2024-02-21T00:23:05;102025.47;;;23.21;41.11
86089;BME280;76699;52.232;5.176;2024-02-21T00:25:30;102025.69;;;23.19;41.05
86089;BME280;76699;52.232;5.176;2024-02-21T00:27:56;102018.75;;;23.17;41.12
86089;BME280;76699;52.232;5.176;2024-02-21T00:30:21;102031.97;;;23.13;41.01
86089;BME280;76699;52.232;5.176;2024-02-21T00:32:47;102029.66;;;23.10;40.93
86089;BME280;76699;52.232;5.176;2024-02-21T00:35:13;102029.25;;;23.06;41.27
86089;BME280;76699;52.232;5.176;2024-02-21T00:37:39;102033.84;;;23.06;41.13
86089;BME280;76699;52.232;5.176;2024-02-21T00:40:05;102026.13;;;23.03;41.12
86089;BME280;76699;52.232;5.176;2024-02-21T00:42:30;102031.78;;;23.01;40.96
86089;BME280;76699;52.232;5.176;2024-02-21T00:44:56;102030.28;;;22.99;40.94
86089;BME280;76699;52.232;5.176;2024-02-21T00:47:21;102014.19;;;22.97;41.12
86089;BME280;76699;52.232;5.176;2024-02-21T00:49:46;102010.84;;;22.95;41.22
86089;BME280;76699;52.232;5.176;2024-02-21T00:52:11;102013.97;;;22.92;41.33
86089;BME280;76699;52.232;5.176;2024-02-21T00:54:37;102010.00;;;22.88;41.05
86089;BME280;76699;52.232;5.176;2024-02-21T00:57:02;102018.38;;;22.87;41.53
86089;BME280;76699;52.232;5.176;2024-02-21T00:59:27;102016.28;;;22.82;41.33
86089;BME280;76699;52.232;5.176;2024-02-21T01:01:53;102017.50;;;22.79;41.25
86089;BME280;76699;52.232;5.176;2024-02-21T01:04:18;102014.16;;;22.77;41.23
86089;BME280;76699;52.232;5.176;2024-02-21T01:06:43;102007.25;;;22.75;41.54
86089;BME280;76699;52.232;5.176;2024-02-21T01:09:10;102012.91;;;22.73;41.36
86089;BME280;76699;52.232;5.176;2024-02-21T01:11:36;102014.16;;;22.71;41.69
86089;BME280;76699;52.232;5.176;2024-02-21T01:14:01;102000.13;;;22.67;41.61
86089;BME280;76699;52.232;5.176;2024-02-21T01:16:27;101999.28;;;22.67;41.46
86089;BME280;76699;52.232;5.176;2024-02-21T01:18:52;102004.31;;;22.63;41.09
86089;BME280;76699;52.232;5.176;2024-02-21T01:21:17;101998.25;;;22.61;41.72
86089;BME280;76699;52.232;5.176;2024-02-21T01:23:43;101992.38;;;22.58;41.59
86089;BME280;76699;52.232;5.176;2024-02-21T01:26:08;101978.38;;;22.54;41.71
86089;BME280;76699;52.232;5.176;2024-02-21T01:28:34;101991.13;;;22.54;41.70
86089;BME280;76699;52.232;5.176;2024-02-21T01:31:00;101978.59;;;22.52;41.73
86089;BME280;76699;52.232;5.176;2024-02-21T01:33:26;101979.81;;;22.50;41.64
86089;BME280;76699;52.232;5.176;2024-02-21T01:35:51;101976.47;;;22.48;41.87
86089;BME280;76699;52.232;5.176;2024-02-21T01:38:16;101965.19;;;22.44;41.74
86089;BME280;76699;52.232;5.176;2024-02-21T01:40:42;101959.13;;;22.42;41.66
86089;BME280;76699;52.232;5.176;2024-02-21T01:43:18;101945.97;;;22.39;41.86
86089;BME280;76699;52.232;5.176;2024-02-21T01:45:47;101952.44;;;22.38;41.68
86089;BME280;76699;52.232;5.176;2024-02-21T01:48:13;101944.72;;;22.35;41.75
86089;BME280;76699;52.232;5.176;2024-02-21T01:50:39;101951.19;;;22.34;41.70
86089;BME280;76699;52.232;5.176;2024-02-21T01:53:05;101950.53;;;22.32;42.08
86089;BME280;76699;52.232;5.176;2024-02-21T01:55:30;101949.91;;;22.30;41.83
86089;BME280;76699;52.232;5.176;2024-02-21T01:57:56;101956.38;;;22.29;41.88
86089;BME280;76699;52.232;5.176;2024-02-21T02:00:22;101932.56;;;22.25;42.15
86089;BME280;76699;52.232;5.176;2024-02-21T02:02:48;101946.13;;;22.25;42.00
86089;BME280;76699;52.232;5.176;2024-02-21T02:05:15;101946.34;;;22.23;41.98
86089;BME280;76699;52.232;5.176;2024-02-21T02:07:42;101943.84;;;22.21;41.94
86089;BME280;76699;52.232;5.176;2024-02-21T02:10:07;101935.28;;;22.18;42.02
86089;BME280;76699;52.232;5.176;2024-02-21T02:12:33;101932.72;;;22.16;42.28
86089;BME280;76699;52.232;5.176;2024-02-21T02:15:03;101931.28;;;22.14;42.02
86089;BME280;76699;52.232;5.176;2024-02-21T02:17:32;101922.50;;;22.12;42.02
86089;BME280;76699;52.232;5.176;2024-02-21T02:19:58;101920.81;;;22.11;42.27
86089;BME280;76699;52.232;5.176;2024-02-21T02:22:28;101920.19;;;22.09;42.31
86089;BME280;76699;52.232;5.176;2024-02-21T02:24:54;101914.13;;;22.07;42.42
86089;BME280;76699;52.232;5.176;2024-02-21T02:27:20;101922.50;;;22.05;42.14
86089;BME280;76699;52.232;5.176;2024-02-21T02:29:45;101913.69;;;22.03;42.39
86089;BME280;76699;52.232;5.176;2024-02-21T02:32:11;101918.50;;;22.01;42.17
86089;BME280;76699;52.232;5.176;2024-02-21T02:34:36;101909.69;;;21.99;42.20
86089;BME280;76699;52.232;5.176;2024-02-21T02:37:01;101908.84;;;21.99;42.27
86089;BME280;76699;52.232;5.176;2024-02-21T02:39:27;101909.91;;;21.98;42.34
86089;BME280;76699;52.232;5.176;2024-02-21T02:41:52;101910.31;;;21.95;42.59
86089;BME280;76699;52.232;5.176;2024-02-21T02:44:18;101913.22;;;21.93;42.39
86089;BME280;76699;52.232;5.176;2024-02-21T02:46:43;101905.28;;;21.91;42.53
86089;BME280;76699;52.232;5.176;2024-02-21T02:49:09;101896.53;;;21.89;42.38
86089;BME280;76699;52.232;5.176;2024-02-21T02:51:34;101897.56;;;21.88;42.64
86089;BME280;76699;52.232;5.176;2024-02-21T02:53:59;101895.06;;;21.87;42.64
86089;BME280;76699;52.232;5.176;2024-02-21T02:56:25;101886.28;;;21.85;42.61
86089;BME280;76699;52.232;5.176;2024-02-21T02:58:50;101885.63;;;21.83;42.70
86089;BME280;76699;52.232;5.176;2024-02-21T03:01:15;101883.13;;;21.81;42.63
86089;BME280;76699;52.232;5.176;2024-02-21T03:03:41;101887.91;;;21.79;42.62
86089;BME280;76699;52.232;5.176;2024-02-21T03:06:06;101882.69;;;21.78;42.56
86089;BME280;76699;52.232;5.176;2024-02-21T03:08:31;101881.03;;;21.77;42.72
86089;BME280;76699;52.232;5.176;2024-02-21T03:10:58;101873.09;;;21.75;42.73
86089;BME280;76699;52.232;5.176;2024-02-21T03:13:24;101873.09;;;21.75;42.79
86089;BME280;76699;52.232;5.176;2024-02-21T03:15:50;101870.59;;;21.74;42.83
86089;BME280;76699;52.232;5.176;2024-02-21T03:18:15;101867.25;;;21.72;42.69
86089;BME280;76699;52.232;5.176;2024-02-21T03:20:40;101857.44;;;21.71;42.84
86089;BME280;76699;52.232;5.176;2024-02-21T03:23:06;101846.78;;;21.69;42.69
86089;BME280;76699;52.232;5.176;2024-02-21T03:25:31;101847.16;;;21.66;42.57
86089;BME280;76699;52.232;5.176;2024-02-21T03:27:56;101843.59;;;21.66;42.92
86089;BME280;76699;52.232;5.176;2024-02-21T03:30:22;101837.56;;;21.63;42.92
86089;BME280;76699;52.232;5.176;2024-02-21T03:32:47;101832.34;;;21.62;42.74
86089;BME280;76699;52.232;5.176;2024-02-21T03:35:12;101833.38;;;21.61;42.69
86089;BME280;76699;52.232;5.176;2024-02-21T03:37:38;101820.84;;;21.60;42.89
86089;BME280;76699;52.232;5.176;2024-02-21T03:40:07;101815.84;;;21.57;42.77
86089;BME280;76699;52.232;5.176;2024-02-21T03:42:32;101812.28;;;21.56;42.83
86089;BME280;76699;52.232;5.176;2024-02-21T03:44:58;101821.47;;;21.55;43.09
86089;BME280;76699;52.232;5.176;2024-02-21T03:47:23;101821.06;;;21.52;43.00
86089;BME280;76699;52.232;5.176;2024-02-21T03:49:49;101820.22;;;21.51;42.97
86089;BME280;76699;52.232;5.176;2024-02-21T03:52:14;101823.97;;;21.50;43.08
86089;BME280;76699;52.232;5.176;2024-02-21T03:54:40;101810.78;;;21.47;42.99
86089;BME280;76699;52.232;5.176;2024-02-21T03:57:05;101811.84;;;21.46;43.11
86089;BME280;76699;52.232;5.176;2024-02-21T03:59:31;101811.84;;;21.46;43.14
86089;BME280;76699;52.232;5.176;2024-02-21T04:01:56;101803.06;;;21.44;43.26
86089;BME280;76699;52.232;5.176;2024-02-21T04:04:22;101803.28;;;21.43;43.09
86089;BME280;76699;52.232;5.176;2024-02-21T04:06:48;101813.28;;;21.42;43.20
86089;BME280;76699;52.232;5.176;2024-02-21T04:09:13;101814.34;;;21.41;43.11
86089;BME280;76699;52.232;5.176;2024-02-21T04:11:38;101804.72;;;21.39;43.17
86089;BME280;76699;52.232;5.176;2024-02-21T04:14:04;101794.09;;;21.37;43.36
86089;BME280;76699;52.232;5.176;2024-02-21T04:16:29;101795.13;;;21.36;43.32
86089;BME280;76699;52.232;5.176;2024-02-21T04:18:54;101788.88;;;21.36;43.22
86089;BME280;76699;52.232;5.176;2024-02-21T04:21:20;101796.38;;;21.34;43.47
86089;BME280;76699;52.232;5.176;2024-02-21T04:23:45;101798.44;;;21.31;43.23
86089;BME280;76699;52.232;5.176;2024-02-21T04:26:10;101792.16;;;21.31;43.41
86089;BME280;76699;52.232;5.176;2024-02-21T04:28:36;101796.97;;;21.29;43.32
86089;BME280;76699;52.232;5.176;2024-02-21T04:31:01;101788.19;;;21.27;43.41
86089;BME280;76699;52.232;5.176;2024-02-21T04:33:26;101792.78;;;21.26;43.41
86089;BME280;76699;52.232;5.176;2024-02-21T04:35:52;101793.00;;;21.25;43.45
86089;BME280;76699;52.232;5.176;2024-02-21T04:38:20;101789.63;;;21.23;43.69
86089;BME280;76699;52.232;5.176;2024-02-21T04:40:45;101784.41;;;21.21;43.48
86089;BME280;76699;52.232;5.176;2024-02-21T04:43:10;101773.75;;;21.20;43.57
86089;BME280;76699;52.232;5.176;2024-02-21T04:45:36;101771.25;;;21.18;43.47
86089;BME280;76699;52.232;5.176;2024-02-21T04:48:01;101773.31;;;21.16;43.72
86089;BME280;76699;52.232;5.176;2024-02-21T04:50:26;101768.91;;;21.15;43.46
86089;BME280;76699;52.232;5.176;2024-02-21T04:52:52;101771.84;;;21.14;43.73
86089;BME280;76699;52.232;5.176;2024-02-21T04:55:17;101762.03;;;21.13;43.44
86089;BME280;76699;52.232;5.176;2024-02-21T04:57:43;101769.34;;;21.12;43.70
86089;BME280;76699;52.232;5.176;2024-02-21T05:00:08;101764.94;;;21.11;43.48
86089;BME280;76699;52.232;5.176;2024-02-21T05:02:34;101770.59;;;21.10;43.59
86089;BME280;76699;52.232;5.176;2024-02-21T05:04:59;101758.06;;;21.09;43.70
86089;BME280;76699;52.232;5.176;2024-02-21T05:07:25;101767.44;;;21.06;43.65
86089;BME280;76699;52.232;5.176;2024-02-21T05:09:50;101763.91;;;21.06;43.61
86089;BME280;76699;52.232;5.176;2024-02-21T05:12:16;101756.81;;;21.05;43.56
86089;BME280;76699;52.232;5.176;2024-02-21T05:14:41;101748.88;;;21.03;43.67
86089;BME280;76699;52.232;5.176;2024-02-21T05:17:07;101746.38;;;21.01;43.89
86089;BME280;76699;52.232;5.176;2024-02-21T05:19:32;101740.28;;;20.99;43.67
86089;BME280;76699;52.232;5.176;2024-02-21T05:21:59;101744.88;;;20.99;43.96
86089;BME280;76699;52.232;5.176;2024-02-21T05:24:24;101739.66;;;20.97;43.83
86089;BME280;76699;52.232;5.176;2024-02-21T05:26:50;101731.72;;;20.96;43.90
86089;BME280;76699;52.232;5.176;2024-02-21T05:29:16;101729.22;;;20.94;43.91
86089;BME280;76699;52.232;5.176;2024-02-21T05:34:16;101715.03;;;20.92;43.85
86089;BME280;76699;52.232;5.176;2024-02-21T05:36:41;101711.69;;;20.90;44.01
86089;BME280;76699;52.232;5.176;2024-02-21T05:39:07;101703.56;;;20.90;43.88
86089;BME280;76699;52.232;5.176;2024-02-21T05:41:32;101701.06;;;20.89;43.88
86089;BME280;76699;52.232;5.176;2024-02-21T05:43:58;101687.91;;;20.86;44.02
86089;BME280;76699;52.232;5.176;2024-02-21T05:46:23;101685.22;;;20.86;43.75
86089;BME280;76699;52.232;5.176;2024-02-21T05:48:48;101667.47;;;20.83;43.94
86089;BME280;76699;52.232;5.176;2024-02-21T05:51:13;101675.78;;;20.82;43.97
86089;BME280;76699;52.232;5.176;2024-02-21T05:53:40;101674.13;;;20.81;43.77
86089;BME280;76699;52.232;5.176;2024-02-21T05:56:10;101679.53;;;20.81;43.96
86089;BME280;76699;52.232;5.176;2024-02-21T05:58:35;101671.63;;;20.79;43.98
86089;BME280;76699;52.232;5.176;2024-02-21T06:01:01;101677.03;;;20.79;44.20
86089;BME280;76699;52.232;5.176;2024-02-21T06:03:29;101669.94;;;20.78;43.91
86089;BME280;76699;52.232;5.176;2024-02-21T06:05:54;101671.19;;;20.76;44.03
86089;BME280;76699;52.232;5.176;2024-02-21T06:08:19;101668.69;;;20.74;44.13
86089;BME280;76699;52.232;5.176;2024-02-21T06:10:45;101665.16;;;20.73;44.04
86089;BME280;76699;52.232;5.176;2024-02-21T06:13:10;101657.22;;;20.72;44.27
86089;BME280;76699;52.232;5.176;2024-02-21T06:15:36;101657.44;;;20.70;44.25
86089;BME280;76699;52.232;5.176;2024-02-21T06:18:01;101668.25;;;20.70;43.97
86089;BME280;76699;52.232;5.176;2024-02-21T06:20:27;101660.56;;;20.67;44.33
86089;BME280;76699;52.232;5.176;2024-02-21T06:22:53;101664.28;;;20.66;44.18
86089;BME280;76699;52.232;5.176;2024-02-21T06:25:19;101667.19;;;20.65;44.29
86089;BME280;76699;52.232;5.176;2024-02-21T06:27:44;101668.00;;;20.65;44.32
86089;BME280;76699;52.232;5.176;2024-02-21T06:30:10;101676.34;;;20.64;44.19
86089;BME280;76699;52.232;5.176;2024-02-21T06:32:35;101680.09;;;20.63;44.72
86089;BME280;76699;52.232;5.176;2024-02-21T06:35:01;101674.88;;;20.61;44.40
86089;BME280;76699;52.232;5.176;2024-02-21T06:37:27;101676.97;;;20.59;44.13
86089;BME280;76699;52.232;5.176;2024-02-21T06:39:52;101678.00;;;20.58;44.49
86089;BME280;76699;52.232;5.176;2024-02-21T06:42:17;101680.91;;;20.57;44.43
86089;BME280;76699;52.232;5.176;2024-02-21T06:44:44;101667.56;;;20.55;44.53
86089;BME280;76699;52.232;5.176;2024-02-21T06:47:10;101665.69;;;20.56;44.55
86089;BME280;76699;52.232;5.176;2024-02-21T06:49:36;101668.63;;;20.54;44.47
86089;BME280;76699;52.232;5.176;2024-02-21T06:52:05;101658.81;;;20.53;44.47
86089;BME280;76699;52.232;5.176;2024-02-21T06:54:30;101656.09;;;20.53;44.44
86089;BME280;76699;52.232;5.176;2024-02-21T06:56:56;101648.38;;;20.50;44.57
86089;BME280;76699;52.232;5.176;2024-02-21T06:59:21;101655.69;;;20.50;44.53
86089;BME280;76699;52.232;5.176;2024-02-21T07:01:53;101643.16;;;20.49;44.47
86089;BME280;76699;52.232;5.176;2024-02-21T07:04:18;101637.94;;;20.47;44.49
86089;BME280;76699;52.232;5.176;2024-02-21T07:06:45;101647.94;;;20.47;44.37
86089;BME280;76699;52.232;5.176;2024-02-21T07:09:11;101639.19;;;20.45;44.56
86089;BME280;76699;52.232;5.176;2024-02-21T07:11:37;101642.72;;;20.45;44.46
86089;BME280;76699;52.232;5.176;2024-02-21T07:14:02;101643.75;;;20.44;44.40
86089;BME280;76699;52.232;5.176;2024-02-21T07:16:29;101632.28;;;20.42;44.56
86089;BME280;76699;52.232;5.176;2024-02-21T07:18:55;101636.66;;;20.43;44.29
86089;BME280;76699;52.232;5.176;2024-02-21T07:21:20;101630.63;;;20.41;44.24
86089;BME280;76699;52.232;5.176;2024-02-21T07:23:46;101638.91;;;20.39;44.45
86089;BME280;76699;52.232;5.176;2024-02-21T07:26:11;101634.34;;;20.40;44.48
86089;BME280;76699;52.232;5.176;2024-02-21T07:28:36;101632.88;;;20.37;44.63
86089;BME280;76699;52.232;5.176;2024-02-21T07:31:02;101632.03;;;20.37;44.73
86089;BME280;76699;52.232;5.176;2024-02-21T07:33:27;101618.50;;;20.37;44.56
86089;BME280;76699;52.232;5.176;2024-02-21T07:35:52;101610.56;;;20.35;44.72
86089;BME280;76699;52.232;5.176;2024-02-21T07:38:18;101606.19;;;20.34;44.67
86089;BME280;76699;52.232;5.176;2024-02-21T07:40:46;101599.13;;;20.33;44.65
86089;BME280;76699;52.232;5.176;2024-02-21T07:43:11;101590.16;;;20.33;44.61
86089;BME280;76699;52.232;5.176;2024-02-21T07:45:37;101585.13;;;20.30;44.71
86089;BME280;76699;52.232;5.176;2024-02-21T07:48:07;101580.53;;;20.30;44.69
86089;BME280;76699;52.232;5.176;2024-02-21T07:50:33;101576.16;;;20.29;44.71
86089;BME280;76699;52.232;5.176;2024-02-21T07:52:58;101570.94;;;20.28;45.06
86089;BME280;76699;52.232;5.176;2024-02-21T07:55:24;101572.81;;;20.27;44.64
86089;BME280;76699;52.232;5.176;2024-02-21T07:57:49;101571.16;;;20.26;44.59
86089;BME280;76699;52.232;5.176;2024-02-21T08:00:15;101575.72;;;20.26;44.94
86089;BME280;76699;52.232;5.176;2024-02-21T08:02:45;101581.16;;;20.26;44.82
86089;BME280;76699;52.232;5.176;2024-02-21T08:05:11;101573.22;;;20.24;44.78
86089;BME280;76699;52.232;5.176;2024-02-21T08:07:39;101578.66;;;20.24;44.82
86089;BME280;76699;52.232;5.176;2024-02-21T08:10:04;101574.28;;;20.23;44.73
86089;BME280;76699;52.232;5.176;2024-02-21T08:12:32;101567.19;;;20.22;44.75
86089;BME280;76699;52.232;5.176;2024-02-21T08:14:57;101570.94;;;20.21;44.81
86089;BME280;76699;52.232;5.176;2024-02-21T08:17:23;101558.84;;;20.17;44.79
86089;BME280;76699;52.232;5.176;2024-02-21T08:19:48;101568.44;;;20.20;44.93
86089;BME280;76699;52.232;5.176;2024-02-21T08:22:14;101552.38;;;20.18;44.73
86089;BME280;76699;52.232;5.176;2024-02-21T08:24:39;101556.13;;;20.17;44.96
86089;BME280;76699;52.232;5.176;2024-02-21T08:27:05;101553.44;;;20.17;45.27
86089;BME280;76699;52.232;5.176;2024-02-21T08:29:31;101544.47;;;20.17;44.72
86089;BME280;76699;52.232;5.176;2024-02-21T08:31:56;101543.81;;;20.14;44.93
86089;BME280;76699;52.232;5.176;2024-02-21T08:34:21;101536.72;;;20.13;44.84
86089;BME280;76699;52.232;5.176;2024-02-21T08:36:47;101532.34;;;20.12;44.85
86089;BME280;76699;52.232;5.176;2024-02-21T08:39:12;101536.09;;;20.11;44.96
86089;BME280;76699;52.232;5.176;2024-02-21T08:41:41;101521.91;;;20.03;45.13
86089;BME280;76699;52.232;5.176;2024-02-21T08:44:06;101515.69;;;20.09;45.00
86089;BME280;76699;52.232;5.176;2024-02-21T08:46:32;101509.44;;;20.08;45.09
86089;BME280;76699;52.232;5.176;2024-02-21T08:48:57;101506.09;;;20.06;44.94
86089;BME280;76699;52.232;5.176;2024-02-21T08:51:23;101515.06;;;20.07;45.11
86089;BME280;76699;52.232;5.176;2024-02-21T08:53:48;101512.56;;;20.05;45.00
86089;BME280;76699;52.232;5.176;2024-02-21T08:56:15;101504.44;;;20.05;45.09
86089;BME280;76699;52.232;5.176;2024-02-21T08:58:40;101507.97;;;20.06;45.13
86089;BME280;76699;52.232;5.176;2024-02-21T09:01:06;101507.13;;;20.05;45.02
86089;BME280;76699;52.232;5.176;2024-02-21T09:03:36;101506.31;;;20.05;45.08
86089;BME280;76699;52.232;5.176;2024-02-21T09:06:01;101504.63;;;20.04;45.03
86089;BME280;76699;52.232;5.176;2024-02-21T09:08:27;101496.50;;;20.04;45.16
86089;BME280;76699;52.232;5.176;2024-02-21T09:10:52;101488.59;;;20.02;45.08
86089;BME280;76699;52.232;5.176;2024-02-21T09:13:18;101489.44;;;20.03;45.16
86089;BME280;76699;52.232;5.176;2024-02-21T09:15:43;101489.44;;;20.03;45.13
86089;BME280;76699;52.232;5.176;2024-02-21T09:18:09;101479.66;;;20.02;45.28
86089;BME280;76699;52.232;5.176;2024-02-21T09:20:34;101476.09;;;20.01;44.96
86089;BME280;76699;52.232;5.176;2024-02-21T09:22:59;101478.19;;;19.99;45.21
86089;BME280;76699;52.232;5.176;2024-02-21T09:25:25;101463.81;;;19.99;45.03
86089;BME280;76699;52.232;5.176;2024-02-21T09:27:51;101463.81;;;19.99;45.41
86089;BME280;76699;52.232;5.176;2024-02-21T09:30:17;101456.69;;;19.98;45.26
86089;BME280;76699;52.232;5.176;2024-02-21T09:32:42;101458.78;;;19.96;45.16
86089;BME280;76699;52.232;5.176;2024-02-21T09:35:08;101452.53;;;19.95;45.36
86089;BME280;76699;52.232;5.176;2024-02-21T09:37:35;101447.13;;;19.95;45.36
86089;BME280;76699;52.232;5.176;2024-02-21T09:40:01;101441.09;;;19.93;44.86
86089;BME280;76699;52.232;5.176;2024-02-21T09:42:41;101431.28;;;19.92;45.37
86089;BME280;76699;52.232;5.176;2024-02-21T09:48:11;101420.88;;;19.89;45.28
86089;BME280;76699;52.232;5.176;2024-02-21T09:50:40;101406.31;;;19.90;45.24
86089;BME280;76699;52.232;5.176;2024-02-21T09:53:09;101400.91;;;19.90;45.49
86089;BME280;76699;52.232;5.176;2024-02-21T09:55:37;101391.13;;;19.89;45.43
86089;BME280;76699;52.232;5.176;2024-02-21T09:58:05;101371.34;;;19.89;45.52
86089;BME280;76699;52.232;5.176;2024-02-21T10:00:30;101373.22;;;19.88;45.25
86089;BME280;76699;52.232;5.176;2024-02-21T10:02:56;101365.09;;;19.88;45.19
86089;BME280;76699;52.232;5.176;2024-02-21T10:05:21;101368.63;;;19.89;45.34
86089;BME280;76699;52.232;5.176;2024-02-21T10:07:48;101359.69;;;19.88;45.33
86089;BME280;76699;52.232;5.176;2024-02-21T10:10:14;101357.19;;;19.87;45.09
86089;BME280;76699;52.232;5.176;2024-02-21T10:12:49;101347.81;;;19.89;45.49
86089;BME280;76699;52.232;5.176;2024-02-21T10:15:20;101346.97;;;19.89;45.53
86089;BME280;76699;52.232;5.176;2024-02-21T10:17:45;101347.81;;;19.89;45.58
86089;BME280;76699;52.232;5.176;2024-02-21T10:20:11;101339.91;;;19.88;45.19
86089;BME280;76699;52.232;5.176;2024-02-21T10:22:38;101331.78;;;19.88;45.15
86089;BME280;76699;52.232;5.176;2024-02-21T10:25:11;101318.25;;;19.88;45.45
86089;BME280;76699;52.232;5.176;2024-02-21T10:27:38;101330.75;;;19.89;45.36
86089;BME280;76699;52.232;5.176;2024-02-21T10:30:12;101323.66;;;19.88;45.30
86089;BME280;76699;52.232;5.176;2024-02-21T10:32:48;101317.63;;;19.86;45.34
86089;BME280;76699;52.232;5.176;2024-02-21T10:35:14;101300.78;;;19.83;45.48
86089;BME280;76699;52.232;5.176;2024-02-21T10:37:39;101299.94;;;19.83;45.41
86089;BME280;76699;52.232;5.176;2024-02-21T10:40:05;101297.22;;;19.83;45.48
86089;BME280;76699;52.232;5.176;2024-02-21T10:42:31;101286.41;;;19.83;45.52
86089;BME280;76699;52.232;5.176;2024-02-21T10:45:01;101290.16;;;19.82;45.81
86089;BME280;76699;52.232;5.176;2024-02-21T10:47:31;101278.28;;;19.83;45.38
86089;BME280;76699;52.232;5.176;2024-02-21T10:50:02;101262.22;;;19.81;45.70
86089;BME280;76699;52.232;5.176;2024-02-21T10:55:04;101237.88;;;19.81;45.63
86089;BME280;76699;52.232;5.176;2024-02-21T10:57:31;101225.41;;;19.80;45.67
86089;BME280;76699;52.232;5.176;2024-02-21T10:59:58;101207.28;;;19.81;45.69
86089;BME280;76699;52.232;5.176;2024-02-21T11:02:25;101204.78;;;19.79;45.59
86089;BME280;76699;52.232;5.176;2024-02-21T11:04:52;101271.59;;;19.79;45.64
86089;BME280;76699;52.232;5.176;2024-02-21T11:07:19;101279.72;;;19.79;45.56
86089;BME280;76699;52.232;5.176;2024-02-21T11:09:54;101269.31;;;19.76;45.44
86089;BME280;76699;52.232;5.176;2024-02-21T11:12:23;101279.31;;;19.75;45.77
86089;BME280;76699;52.232;5.176;2024-02-21T11:14:48;101278.47;;;19.75;45.67
86089;BME280;76699;52.232;5.176;2024-02-21T11:17:20;101272.44;;;19.73;45.64
86089;BME280;76699;52.232;5.176;2024-02-21T11:19:52;101265.34;;;19.72;45.84
86089;BME280;76699;52.232;5.176;2024-02-21T11:22:19;101268.06;;;19.72;45.77
86089;BME280;76699;52.232;5.176;2024-02-21T11:24:45;101265.56;;;19.70;45.67
86089;BME280;76699;52.232;5.176;2024-02-21T11:27:21;101251.41;;;19.68;45.67
86089;BME280;76699;52.232;5.176;2024-02-21T11:29:48;101248.72;;;19.68;45.86
86089;BME280;76699;52.232;5.176;2024-02-21T11:32:17;101241.44;;;19.69;45.93
86089;BME280;76699;52.232;5.176;2024-02-21T11:35:03;101224.78;;;19.65;45.56
86089;BME280;76699;52.232;5.176;2024-02-21T11:37:31;101212.28;;;19.64;45.81
86089;BME280;76699;52.232;5.176;2024-02-21T11:39:58;101193.34;;;19.64;45.90
86089;BME280;76699;52.232;5.176;2024-02-21T11:42:28;101200.63;;;19.64;45.60
86089;BME280;76699;52.232;5.176;2024-02-21T11:44:54;101190.63;;;19.64;45.75
86089;BME280;76699;52.232;5.176;2024-02-21T11:47:22;101186.25;;;19.63;45.79
86089;BME280;76699;52.232;5.176;2024-02-21T11:49:48;101190.00;;;19.62;45.83
86089;BME280;76699;52.232;5.176;2024-02-21T11:52:15;101164.84;;;19.62;45.68
86089;BME280;76699;52.232;5.176;2024-02-21T11:54:42;101140.69;;;19.60;45.91
86089;BME280;76699;52.232;5.176;2024-02-21T11:57:07;101148.59;;;19.62;45.89
86089;BME280;76699;52.232;5.176;2024-02-21T11:59:36;101111.78;;;19.61;45.88
86089;BME280;76699;52.232;5.176;2024-02-21T12:02:02;101102.00;;;19.60;45.92
86089;BME280;76699;52.232;5.176;2024-02-21T12:04:29;101102.84;;;19.60;45.79
86089;BME280;76699;52.232;5.176;2024-02-21T12:06:59;101083.06;;;19.60;45.91
86089;BME280;76699;52.232;5.176;2024-02-21T12:09:26;101083.91;;;19.60;45.80
86089;BME280;76699;52.232;5.176;2024-02-21T12:12:03;101071.41;;;19.59;45.88
86089;BME280;76699;52.232;5.176;2024-02-21T12:14:29;101063.09;;;19.61;45.88
86089;BME280;76699;52.232;5.176;2024-02-21T12:16:55;101070.16;;;19.62;45.96
86089;BME280;76699;52.232;5.176;2024-02-21T12:19:22;101069.34;;;19.61;45.85
86089;BME280;76699;52.232;5.176;2024-02-21T12:21:50;101067.47;;;19.62;45.85
86089;BME280;76699;52.232;5.176;2024-02-21T12:24:21;101055.81;;;19.61;46.02
86089;BME280;76699;52.232;5.176;2024-02-21T12:26:46;101043.31;;;19.60;46.05
86089;BME280;76699;52.232;5.176;2024-02-21T12:29:12;101056.03;;;19.60;46.19
86089;BME280;76699;52.232;5.176;2024-02-21T12:31:38;101032.72;;;19.59;45.96
86089;BME280;76699;52.232;5.176;2024-02-21T12:34:03;101022.94;;;19.51;45.77
86089;BME280;76699;52.232;5.176;2024-02-21T12:36:30;101015.44;;;19.46;46.36
86089;BME280;76699;52.232;5.176;2024-02-21T12:38:55;101010.66;;;19.42;46.20
86089;BME280;76699;52.232;5.176;2024-02-21T12:41:20;100998.81;;;19.36;46.71
86089;BME280;76699;52.232;5.176;2024-02-21T12:43:46;100988.84;;;19.37;46.67
86089;BME280;76699;52.232;5.176;2024-02-21T12:46:12;100979.47;;;19.39;46.55
86089;BME280;76699;52.232;5.176;2024-02-21T12:48:37;100970.94;;;19.42;46.45
86089;BME280;76699;52.232;5.176;2024-02-21T12:51:03;100972.16;;;19.46;46.78
86089;BME280;76699;52.232;5.176;2024-02-21T12:53:29;100957.81;;;19.52;46.70